sensor_id;sensor_type;location;lat;lon;timestamp;P1;durP1;ratioP1;P2;durP2;ratioP2
47455;SDS011;33202;48.512;-2.780;2023-05-24T00:01:18;10.60;;;2.47;;
47455;SDS011;33202;48.512;-2.780;2023-05-24T00:03:52;4.47;;;1.63;;
47455;SDS011;33202;48.512;-2.780;2023-05-24T00:06:18;8.95;;;2.67;;
47455;SDS011;33202;48.512;-2.780;2023-05-24T00:08:45;7.32;;;2.10;;
47455;SDS011;33202;48.512;-2.780;2023-05-24T00:11:11;8.48;;;1.92;;
47455;SDS011;33202;48.512;-2.780;2023-05-24T00:13:37;7.20;;;2.33;;
47455;SDS011;33202;48.512;-2.780;2023-05-24T00:16:03;6.68;;;2.00;;
47455;SDS011;33202;48.512;-2.780;2023-05-24T00:18:29;7.38;;;1.75;;
47455;SDS011;33202;48.512;-2.780;2023-05-24T00:20:56;9.73;;;2.10;;
47455;SDS011;33202;48.512;-2.780;2023-05-24T00:23:23;8.10;;;1.80;;
47455;SDS011;33202;48.512;-2.780;2023-05-24T00:25:49;8.82;;;2.20;;
47455;SDS011;33202;48.512;-2.780;2023-05-24T00:28:15;8.55;;;1.88;;
47455;SDS011;33202;48.512;-2.780;2023-05-24T00:30:41;7.88;;;1.80;;
47455;SDS011;33202;48.512;-2.780;2023-05-24T00:33:07;9.48;;;2.28;;
47455;SDS011;33202;48.512;-2.780;2023-05-24T00:35:33;7.15;;;1.70;;
47455;SDS011;33202;48.512;-2.780;2023-05-24T00:37:59;6.07;;;1.92;;
47455;SDS011;33202;48.512;-2.780;2023-05-24T00:40:25;7.93;;;2.13;;
47455;SDS011;33202;48.512;-2.780;2023-05-24T00:42:51;6.53;;;1.50;;
47455;SDS011;33202;48.512;-2.780;2023-05-24T00:45:17;8.85;;;1.88;;
47455;SDS011;33202;48.512;-2.780;2023-05-24T00:47:44;8.00;;;1.98;;
47455;SDS011;33202;48.512;-2.780;2023-05-24T00:50:11;6.00;;;1.80;;
47455;SDS011;33202;48.512;-2.780;2023-05-24T00:52:41;8.95;;;2.55;;
47455;SDS011;33202;48.512;-2.780;2023-05-24T00:55:07;6.90;;;1.67;;
47455;SDS011;33202;48.512;-2.780;2023-05-24T00:57:36;5.57;;;1.75;;
47455;SDS011;33202;48.512;-2.780;2023-05-24T01:00:03;6.53;;;1.90;;
47455;SDS011;33202;48.512;-2.780;2023-05-24T01:02:30;3.70;;;1.30;;
47455;SDS011;33202;48.512;-2.780;2023-05-24T01:04:56;7.10;;;1.63;;
47455;SDS011;33202;48.512;-2.780;2023-05-24T01:07:26;6.63;;;1.60;;
47455;SDS011;33202;48.512;-2.780;2023-05-24T01:12:35;5.30;;;1.60;;
47455;SDS011;33202;48.512;-2.780;2023-05-24T01:17:35;6.07;;;1.65;;
47455;SDS011;33202;48.512;-2.780;2023-05-24T01:20:06;8.65;;;2.08;;
47455;SDS011;33202;48.512;-2.780;2023-05-24T01:25:18;8.63;;;1.80;;
47455;SDS011;33202;48.512;-2.780;2023-05-24T01:27:47;4.78;;;1.65;;
47455;SDS011;33202;48.512;-2.780;2023-05-24T01:30:14;8.10;;;1.60;;
47455;SDS011;33202;48.512;-2.780;2023-05-24T01:32:41;6.90;;;1.30;;
47455;SDS011;33202;48.512;-2.780;2023-05-24T01:35:07;8.93;;;1.63;;
47455;SDS011;33202;48.512;-2.780;2023-05-24T01:37:33;6.55;;;1.50;;
47455;SDS011;33202;48.512;-2.780;2023-05-24T01:40:00;8.70;;;2.25;;
47455;SDS011;33202;48.512;-2.780;2023-05-24T01:42:29;4.45;;;1.30;;
47455;SDS011;33202;48.512;-2.780;2023-05-24T01:45:07;6.60;;;1.38;;
47455;SDS011;33202;48.512;-2.780;2023-05-24T01:47:44;7.07;;;1.48;;
47455;SDS011;33202;48.512;-2.780;2023-05-24T01:52:40;5.60;;;1.55;;
47455;SDS011;33202;48.512;-2.780;2023-05-24T01:55:09;5.07;;;1.40;;
47455;SDS011;33202;48.512;-2.780;2023-05-24T01:57:37;6.43;;;1.52;;
47455;SDS011;33202;48.512;-2.780;2023-05-24T02:00:05;7.15;;;1.92;;
47455;SDS011;33202;48.512;-2.780;2023-05-24T02:02:32;9.88;;;1.55;;
47455;SDS011;33202;48.512;-2.780;2023-05-24T02:04:58;5.97;;;1.45;;
47455;SDS011;33202;48.512;-2.780;2023-05-24T02:07:24;4.88;;;1.60;;
47455;SDS011;33202;48.512;-2.780;2023-05-24T02:09:50;6.55;;;1.40;;
47455;SDS011;33202;48.512;-2.780;2023-05-24T02:12:16;11.32;;;1.80;;
47455;SDS011;33202;48.512;-2.780;2023-05-24T02:14:42;7.25;;;1.98;;
47455;SDS011;33202;48.512;-2.780;2023-05-24T02:17:08;9.80;;;1.48;;
47455;SDS011;33202;48.512;-2.780;2023-05-24T02:19:34;5.70;;;1.70;;
47455;SDS011;33202;48.512;-2.780;2023-05-24T02:22:01;7.83;;;1.60;;
47455;SDS011;33202;48.512;-2.780;2023-05-24T02:24:27;5.17;;;1.70;;
47455;SDS011;33202;48.512;-2.780;2023-05-24T02:26:53;8.88;;;1.60;;
47455;SDS011;33202;48.512;-2.780;2023-05-24T02:29:20;11.57;;;2.10;;
47455;SDS011;33202;48.512;-2.780;2023-05-24T02:31:46;6.53;;;1.80;;
47455;SDS011;33202;48.512;-2.780;2023-05-24T02:34:15;7.88;;;1.92;;
47455;SDS011;33202;48.512;-2.780;2023-05-24T02:36:41;5.00;;;1.60;;
47455;SDS011;33202;48.512;-2.780;2023-05-24T02:39:09;9.30;;;1.70;;
47455;SDS011;33202;48.512;-2.780;2023-05-24T02:41:35;7.18;;;2.40;;
47455;SDS011;33202;48.512;-2.780;2023-05-24T02:44:01;8.65;;;2.03;;
47455;SDS011;33202;48.512;-2.780;2023-05-24T02:46:27;5.55;;;1.80;;
47455;SDS011;33202;48.512;-2.780;2023-05-24T02:48:53;8.55;;;1.70;;
47455;SDS011;33202;48.512;-2.780;2023-05-24T02:51:19;7.22;;;2.15;;
47455;SDS011;33202;48.512;-2.780;2023-05-24T02:53:45;9.10;;;1.73;;
47455;SDS011;33202;48.512;-2.780;2023-05-24T02:56:11;6.88;;;2.25;;
47455;SDS011;33202;48.512;-2.780;2023-05-24T02:58:38;7.75;;;2.33;;
47455;SDS011;33202;48.512;-2.780;2023-05-24T03:01:05;11.93;;;2.13;;
47455;SDS011;33202;48.512;-2.780;2023-05-24T03:03:31;10.47;;;2.13;;
47455;SDS011;33202;48.512;-2.780;2023-05-24T03:05:57;8.20;;;2.08;;
47455;SDS011;33202;48.512;-2.780;2023-05-24T03:08:23;9.65;;;2.13;;
47455;SDS011;33202;48.512;-2.780;2023-05-24T03:10:49;11.25;;;2.00;;
47455;SDS011;33202;48.512;-2.780;2023-05-24T03:13:15;7.40;;;2.10;;
47455;SDS011;33202;48.512;-2.780;2023-05-24T03:15:41;8.60;;;1.83;;
47455;SDS011;33202;48.512;-2.780;2023-05-24T03:18:07;8.65;;;1.98;;
47455;SDS011;33202;48.512;-2.780;2023-05-24T03:20:33;8.68;;;2.30;;
47455;SDS011;33202;48.512;-2.780;2023-05-24T03:22:59;4.90;;;1.40;;
47455;SDS011;33202;48.512;-2.780;2023-05-24T03:25:25;7.35;;;1.85;;
47455;SDS011;33202;48.512;-2.780;2023-05-24T03:27:51;7.68;;;2.10;;
47455;SDS011;33202;48.512;-2.780;2023-05-24T03:30:17;7.75;;;1.73;;
47455;SDS011;33202;48.512;-2.780;2023-05-24T03:32:43;7.28;;;1.70;;
47455;SDS011;33202;48.512;-2.780;2023-05-24T03:35:09;9.00;;;1.80;;
47455;SDS011;33202;48.512;-2.780;2023-05-24T03:37:38;6.40;;;1.90;;
47455;SDS011;33202;48.512;-2.780;2023-05-24T03:40:05;9.30;;;2.00;;
47455;SDS011;33202;48.512;-2.780;2023-05-24T03:42:31;8.25;;;2.00;;
47455;SDS011;33202;48.512;-2.780;2023-05-24T03:44:57;10.48;;;2.20;;
47455;SDS011;33202;48.512;-2.780;2023-05-24T03:47:23;9.10;;;1.83;;
47455;SDS011;33202;48.512;-2.780;2023-05-24T03:49:49;8.38;;;2.22;;
47455;SDS011;33202;48.512;-2.780;2023-05-24T03:52:15;9.80;;;2.17;;
47455;SDS011;33202;48.512;-2.780;2023-05-24T03:54:41;7.72;;;2.08;;
47455;SDS011;33202;48.512;-2.780;2023-05-24T03:57:07;8.93;;;1.88;;
47455;SDS011;33202;48.512;-2.780;2023-05-24T04:02:01;6.68;;;2.03;;
47455;SDS011;33202;48.512;-2.780;2023-05-24T04:04:27;8.55;;;1.88;;
47455;SDS011;33202;48.512;-2.780;2023-05-24T04:06:53;6.43;;;1.95;;
47455;SDS011;33202;48.512;-2.780;2023-05-24T04:09:21;10.77;;;2.40;;
47455;SDS011;33202;48.512;-2.780;2023-05-24T04:11:48;8.63;;;1.85;;
47455;SDS011;33202;48.512;-2.780;2023-05-24T04:14:14;10.25;;;1.88;;
47455;SDS011;33202;48.512;-2.780;2023-05-24T04:16:40;6.93;;;1.83;;
47455;SDS011;33202;48.512;-2.780;2023-05-24T04:19:09;9.02;;;1.88;;
47455;SDS011;33202;48.512;-2.780;2023-05-24T04:21:35;5.15;;;1.60;;
47455;SDS011;33202;48.512;-2.780;2023-05-24T04:24:01;9.07;;;1.93;;
47455;SDS011;33202;48.512;-2.780;2023-05-24T04:26:28;6.47;;;2.33;;
47455;SDS011;33202;48.512;-2.780;2023-05-24T04:28:55;9.63;;;2.42;;
47455;SDS011;33202;48.512;-2.780;2023-05-24T04:31:21;6.50;;;1.65;;
47455;SDS011;33202;48.512;-2.780;2023-05-24T04:33:47;7.72;;;1.70;;
47455;SDS011;33202;48.512;-2.780;2023-05-24T04:36:14;12.00;;;2.10;;
47455;SDS011;33202;48.512;-2.780;2023-05-24T04:38:41;5.47;;;1.65;;
47455;SDS011;33202;48.512;-2.780;2023-05-24T04:41:09;9.75;;;2.00;;
47455;SDS011;33202;48.512;-2.780;2023-05-24T04:43:36;6.22;;;1.50;;
47455;SDS011;33202;48.512;-2.780;2023-05-24T04:46:02;5.03;;;1.67;;
47455;SDS011;33202;48.512;-2.780;2023-05-24T04:48:28;9.18;;;2.13;;
47455;SDS011;33202;48.512;-2.780;2023-05-24T04:50:55;6.85;;;1.98;;
47455;SDS011;33202;48.512;-2.780;2023-05-24T04:53:22;8.15;;;2.05;;
47455;SDS011;33202;48.512;-2.780;2023-05-24T04:55:49;5.07;;;1.77;;
47455;SDS011;33202;48.512;-2.780;2023-05-24T04:58:15;9.00;;;1.50;;
47455;SDS011;33202;48.512;-2.780;2023-05-24T05:00:41;7.35;;;1.77;;
47455;SDS011;33202;48.512;-2.780;2023-05-24T05:03:08;7.57;;;2.00;;
47455;SDS011;33202;48.512;-2.780;2023-05-24T05:05:34;9.18;;;1.58;;
47455;SDS011;33202;48.512;-2.780;2023-05-24T05:08:00;7.20;;;2.05;;
47455;SDS011;33202;48.512;-2.780;2023-05-24T05:10:26;6.80;;;1.40;;
47455;SDS011;33202;48.512;-2.780;2023-05-24T05:12:52;9.38;;;2.08;;
47455;SDS011;33202;48.512;-2.780;2023-05-24T05:15:19;6.30;;;1.58;;
47455;SDS011;33202;48.512;-2.780;2023-05-24T05:17:45;7.57;;;1.55;;
47455;SDS011;33202;48.512;-2.780;2023-05-24T05:20:11;7.93;;;1.70;;
47455;SDS011;33202;48.512;-2.780;2023-05-24T05:22:37;7.45;;;2.17;;
47455;SDS011;33202;48.512;-2.780;2023-05-24T05:25:03;7.18;;;1.70;;
47455;SDS011;33202;48.512;-2.780;2023-05-24T05:27:29;7.18;;;1.63;;
47455;SDS011;33202;48.512;-2.780;2023-05-24T05:29:55;7.78;;;1.60;;
47455;SDS011;33202;48.512;-2.780;2023-05-24T05:32:21;9.13;;;2.17;;
47455;SDS011;33202;48.512;-2.780;2023-05-24T05:34:47;12.23;;;1.80;;
47455;SDS011;33202;48.512;-2.780;2023-05-24T05:37:13;9.70;;;1.85;;
47455;SDS011;33202;48.512;-2.780;2023-05-24T05:39:39;10.27;;;2.35;;
47455;SDS011;33202;48.512;-2.780;2023-05-24T05:42:05;10.65;;;1.95;;
47455;SDS011;33202;48.512;-2.780;2023-05-24T05:44:31;10.70;;;1.83;;
47455;SDS011;33202;48.512;-2.780;2023-05-24T05:46:57;9.20;;;1.55;;
47455;SDS011;33202;48.512;-2.780;2023-05-24T05:49:23;7.47;;;1.95;;
47455;SDS011;33202;48.512;-2.780;2023-05-24T05:51:49;8.80;;;1.85;;
47455;SDS011;33202;48.512;-2.780;2023-05-24T05:54:17;7.20;;;2.05;;
47455;SDS011;33202;48.512;-2.780;2023-05-24T05:56:43;6.45;;;1.73;;
47455;SDS011;33202;48.512;-2.780;2023-05-24T05:59:11;8.75;;;1.50;;
47455;SDS011;33202;48.512;-2.780;2023-05-24T06:01:38;7.75;;;2.00;;
47455;SDS011;33202;48.512;-2.780;2023-05-24T06:04:05;4.88;;;1.23;;
47455;SDS011;33202;48.512;-2.780;2023-05-24T06:06:31;10.15;;;1.70;;
47455;SDS011;33202;48.512;-2.780;2023-05-24T06:08:57;6.70;;;1.70;;
47455;SDS011;33202;48.512;-2.780;2023-05-24T06:11:24;7.70;;;1.55;;
47455;SDS011;33202;48.512;-2.780;2023-05-24T06:13:51;7.65;;;1.88;;
47455;SDS011;33202;48.512;-2.780;2023-05-24T06:16:17;7.53;;;1.70;;
47455;SDS011;33202;48.512;-2.780;2023-05-24T06:18:44;9.48;;;1.92;;
47455;SDS011;33202;48.512;-2.780;2023-05-24T06:21:11;6.75;;;1.65;;
47455;SDS011;33202;48.512;-2.780;2023-05-24T06:23:37;7.75;;;1.67;;
47455;SDS011;33202;48.512;-2.780;2023-05-24T06:26:04;5.30;;;1.20;;
47455;SDS011;33202;48.512;-2.780;2023-05-24T06:28:30;9.70;;;1.92;;
47455;SDS011;33202;48.512;-2.780;2023-05-24T06:30:56;4.72;;;1.55;;
47455;SDS011;33202;48.512;-2.780;2023-05-24T06:33:22;5.40;;;1.42;;
47455;SDS011;33202;48.512;-2.780;2023-05-24T06:35:48;9.70;;;1.73;;
47455;SDS011;33202;48.512;-2.780;2023-05-24T06:38:15;7.25;;;1.70;;
47455;SDS011;33202;48.512;-2.780;2023-05-24T06:40:41;5.80;;;1.50;;
47455;SDS011;33202;48.512;-2.780;2023-05-24T06:43:07;7.50;;;2.15;;
47455;SDS011;33202;48.512;-2.780;2023-05-24T06:45:33;5.57;;;1.60;;
47455;SDS011;33202;48.512;-2.780;2023-05-24T06:48:00;9.13;;;1.70;;
47455;SDS011;33202;48.512;-2.780;2023-05-24T06:50:26;4.82;;;1.58;;
47455;SDS011;33202;48.512;-2.780;2023-05-24T06:52:52;4.88;;;1.48;;
47455;SDS011;33202;48.512;-2.780;2023-05-24T06:55:18;5.13;;;1.30;;
47455;SDS011;33202;48.512;-2.780;2023-05-24T06:57:44;6.15;;;1.50;;
47455;SDS011;33202;48.512;-2.780;2023-05-24T07:00:11;7.78;;;1.58;;
47455;SDS011;33202;48.512;-2.780;2023-05-24T07:02:40;8.48;;;1.65;;
47455;SDS011;33202;48.512;-2.780;2023-05-24T07:05:06;7.28;;;1.85;;
47455;SDS011;33202;48.512;-2.780;2023-05-24T07:07:36;7.35;;;1.52;;
47455;SDS011;33202;48.512;-2.780;2023-05-24T07:10:02;8.50;;;1.92;;
47455;SDS011;33202;48.512;-2.780;2023-05-24T07:12:28;9.18;;;1.70;;
47455;SDS011;33202;48.512;-2.780;2023-05-24T07:14:56;8.07;;;1.60;;
47455;SDS011;33202;48.512;-2.780;2023-05-24T07:17:22;11.10;;;2.03;;
47455;SDS011;33202;48.512;-2.780;2023-05-24T07:19:48;8.35;;;2.08;;
47455;SDS011;33202;48.512;-2.780;2023-05-24T07:22:14;8.70;;;2.20;;
47455;SDS011;33202;48.512;-2.780;2023-05-24T07:24:40;8.25;;;1.45;;
47455;SDS011;33202;48.512;-2.780;2023-05-24T07:27:06;8.85;;;1.73;;
47455;SDS011;33202;48.512;-2.780;2023-05-24T07:29:32;8.48;;;1.98;;
47455;SDS011;33202;48.512;-2.780;2023-05-24T07:31:58;10.00;;;2.10;;
47455;SDS011;33202;48.512;-2.780;2023-05-24T07:34:25;8.85;;;2.10;;
47455;SDS011;33202;48.512;-2.780;2023-05-24T07:36:54;7.07;;;1.95;;
47455;SDS011;33202;48.512;-2.780;2023-05-24T07:39:20;11.07;;;1.75;;
47455;SDS011;33202;48.512;-2.780;2023-05-24T07:41:47;9.20;;;1.75;;
47455;SDS011;33202;48.512;-2.780;2023-05-24T07:44:13;8.15;;;1.75;;
47455;SDS011;33202;48.512;-2.780;2023-05-24T07:46:39;9.95;;;1.58;;
47455;SDS011;33202;48.512;-2.780;2023-05-24T07:49:05;8.27;;;1.80;;
47455;SDS011;33202;48.512;-2.780;2023-05-24T07:51:31;9.35;;;2.42;;
47455;SDS011;33202;48.512;-2.780;2023-05-24T07:53:58;12.68;;;2.03;;
47455;SDS011;33202;48.512;-2.780;2023-05-24T07:56:24;10.10;;;2.22;;
47455;SDS011;33202;48.512;-2.780;2023-05-24T07:58:50;11.02;;;2.03;;
47455;SDS011;33202;48.512;-2.780;2023-05-24T08:01:16;8.65;;;1.85;;
47455;SDS011;33202;48.512;-2.780;2023-05-24T08:03:43;4.38;;;1.60;;
47455;SDS011;33202;48.512;-2.780;2023-05-24T08:06:10;7.43;;;1.60;;
47455;SDS011;33202;48.512;-2.780;2023-05-24T08:08:37;10.10;;;2.35;;
47455;SDS011;33202;48.512;-2.780;2023-05-24T08:13:30;13.38;;;1.90;;
47455;SDS011;33202;48.512;-2.780;2023-05-24T08:15:56;7.85;;;1.70;;
47455;SDS011;33202;48.512;-2.780;2023-05-24T08:18:22;7.63;;;1.83;;
47455;SDS011;33202;48.512;-2.780;2023-05-24T08:20:48;9.40;;;1.88;;
47455;SDS011;33202;48.512;-2.780;2023-05-24T08:23:14;7.82;;;1.75;;
47455;SDS011;33202;48.512;-2.780;2023-05-24T08:25:41;7.43;;;1.67;;
47455;SDS011;33202;48.512;-2.780;2023-05-24T08:28:07;5.97;;;1.70;;
47455;SDS011;33202;48.512;-2.780;2023-05-24T08:33:01;7.50;;;1.40;;
47455;SDS011;33202;48.512;-2.780;2023-05-24T08:35:27;7.95;;;1.83;;
47455;SDS011;33202;48.512;-2.780;2023-05-24T08:37:53;7.78;;;1.70;;
47455;SDS011;33202;48.512;-2.780;2023-05-24T08:40:19;8.65;;;1.90;;
47455;SDS011;33202;48.512;-2.780;2023-05-24T08:42:47;11.23;;;2.35;;
47455;SDS011;33202;48.512;-2.780;2023-05-24T08:45:15;8.35;;;1.95;;
47455;SDS011;33202;48.512;-2.780;2023-05-24T08:47:42;14.43;;;2.25;;
47455;SDS011;33202;48.512;-2.780;2023-05-24T08:50:09;10.32;;;2.10;;
47455;SDS011;33202;48.512;-2.780;2023-05-24T08:52:35;7.57;;;1.73;;
47455;SDS011;33202;48.512;-2.780;2023-05-24T08:55:04;7.30;;;1.70;;
47455;SDS011;33202;48.512;-2.780;2023-05-24T08:57:31;25.73;;;4.13;;
47455;SDS011;33202;48.512;-2.780;2023-05-24T08:59:58;15.57;;;3.00;;
47455;SDS011;33202;48.512;-2.780;2023-05-24T09:02:25;8.20;;;1.52;;
47455;SDS011;33202;48.512;-2.780;2023-05-24T09:04:51;7.43;;;1.60;;
47455;SDS011;33202;48.512;-2.780;2023-05-24T09:07:18;7.80;;;2.00;;
47455;SDS011;33202;48.512;-2.780;2023-05-24T09:09:49;10.65;;;2.20;;
47455;SDS011;33202;48.512;-2.780;2023-05-24T09:12:16;7.38;;;2.00;;
47455;SDS011;33202;48.512;-2.780;2023-05-24T09:14:46;6.70;;;1.75;;
47455;SDS011;33202;48.512;-2.780;2023-05-24T09:17:12;8.43;;;1.85;;
47455;SDS011;33202;48.512;-2.780;2023-05-24T09:19:44;8.63;;;1.90;;
47455;SDS011;33202;48.512;-2.780;2023-05-24T09:22:14;6.47;;;1.85;;
47455;SDS011;33202;48.512;-2.780;2023-05-24T09:24:45;8.18;;;1.63;;
47455;SDS011;33202;48.512;-2.780;2023-05-24T09:27:15;7.57;;;1.98;;
47455;SDS011;33202;48.512;-2.780;2023-05-24T09:29:42;10.30;;;1.83;;
47455;SDS011;33202;48.512;-2.780;2023-05-24T09:32:10;6.75;;;1.73;;
47455;SDS011;33202;48.512;-2.780;2023-05-24T09:34:38;10.95;;;2.45;;
47455;SDS011;33202;48.512;-2.780;2023-05-24T09:39:32;11.23;;;2.15;;
47455;SDS011;33202;48.512;-2.780;2023-05-24T09:41:58;6.95;;;2.08;;
47455;SDS011;33202;48.512;-2.780;2023-05-24T09:44:24;8.50;;;2.00;;
47455;SDS011;33202;48.512;-2.780;2023-05-24T09:46:52;9.35;;;1.77;;
47455;SDS011;33202;48.512;-2.780;2023-05-24T09:49:19;7.75;;;1.90;;
47455;SDS011;33202;48.512;-2.780;2023-05-24T09:51:45;10.63;;;2.20;;
47455;SDS011;33202;48.512;-2.780;2023-05-24T09:54:12;5.95;;;1.98;;
47455;SDS011;33202;48.512;-2.780;2023-05-24T09:56:39;9.18;;;1.65;;
47455;SDS011;33202;48.512;-2.780;2023-05-24T09:59:05;7.40;;;1.80;;
47455;SDS011;33202;48.512;-2.780;2023-05-24T10:03:59;6.65;;;2.03;;
47455;SDS011;33202;48.512;-2.780;2023-05-24T10:06:27;7.35;;;1.80;;
47455;SDS011;33202;48.512;-2.780;2023-05-24T10:08:54;9.88;;;2.10;;
47455;SDS011;33202;48.512;-2.780;2023-05-24T10:11:21;9.25;;;1.88;;
47455;SDS011;33202;48.512;-2.780;2023-05-24T10:13:47;6.00;;;1.77;;
47455;SDS011;33202;48.512;-2.780;2023-05-24T10:16:14;7.57;;;1.97;;
47455;SDS011;33202;48.512;-2.780;2023-05-24T10:18:40;7.45;;;2.03;;
47455;SDS011;33202;48.512;-2.780;2023-05-24T10:21:06;9.95;;;1.90;;
47455;SDS011;33202;48.512;-2.780;2023-05-24T10:23:33;9.30;;;1.88;;
47455;SDS011;33202;48.512;-2.780;2023-05-24T10:26:07;6.93;;;1.92;;
47455;SDS011;33202;48.512;-2.780;2023-05-24T10:28:36;7.45;;;2.35;;
47455;SDS011;33202;48.512;-2.780;2023-05-24T10:33:34;13.18;;;2.20;;
47455;SDS011;33202;48.512;-2.780;2023-05-24T10:36:05;9.38;;;2.15;;
47455;SDS011;33202;48.512;-2.780;2023-05-24T10:38:32;7.72;;;2.03;;
47455;SDS011;33202;48.512;-2.780;2023-05-24T10:40:59;6.23;;;2.40;;
47455;SDS011;33202;48.512;-2.780;2023-05-24T10:43:25;7.93;;;2.20;;
47455;SDS011;33202;48.512;-2.780;2023-05-24T10:45:51;9.10;;;2.05;;
47455;SDS011;33202;48.512;-2.780;2023-05-24T10:50:49;11.93;;;2.40;;
47455;SDS011;33202;48.512;-2.780;2023-05-24T10:53:16;8.77;;;2.25;;
47455;SDS011;33202;48.512;-2.780;2023-05-24T10:55:53;7.93;;;2.70;;
47455;SDS011;33202;48.512;-2.780;2023-05-24T10:58:21;9.63;;;2.38;;
47455;SDS011;33202;48.512;-2.780;2023-05-24T11:00:47;9.35;;;2.00;;
47455;SDS011;33202;48.512;-2.780;2023-05-24T11:03:15;10.18;;;2.20;;
47455;SDS011;33202;48.512;-2.780;2023-05-24T11:08:14;8.50;;;2.10;;
47455;SDS011;33202;48.512;-2.780;2023-05-24T11:10:40;9.90;;;2.00;;
47455;SDS011;33202;48.512;-2.780;2023-05-24T11:13:06;11.32;;;2.60;;
47455;SDS011;33202;48.512;-2.780;2023-05-24T11:15:33;10.00;;;2.33;;
47455;SDS011;33202;48.512;-2.780;2023-05-24T11:23:06;9.57;;;2.33;;
47455;SDS011;33202;48.512;-2.780;2023-05-24T11:25:36;7.22;;;2.25;;
47455;SDS011;33202;48.512;-2.780;2023-05-24T11:28:05;12.43;;;2.27;;
47455;SDS011;33202;48.512;-2.780;2023-05-24T11:30:31;7.50;;;2.20;;
47455;SDS011;33202;48.512;-2.780;2023-05-24T11:32:57;9.52;;;2.53;;
47455;SDS011;33202;48.512;-2.780;2023-05-24T11:35:26;8.60;;;2.38;;
47455;SDS011;33202;48.512;-2.780;2023-05-24T11:37:58;11.38;;;3.10;;
47455;SDS011;33202;48.512;-2.780;2023-05-24T11:40:24;6.47;;;1.98;;
47455;SDS011;33202;48.512;-2.780;2023-05-24T11:42:51;13.73;;;2.50;;
47455;SDS011;33202;48.512;-2.780;2023-05-24T11:45:17;9.18;;;2.80;;
47455;SDS011;33202;48.512;-2.780;2023-05-24T11:47:43;7.55;;;2.50;;
47455;SDS011;33202;48.512;-2.780;2023-05-24T11:50:09;9.43;;;2.55;;
47455;SDS011;33202;48.512;-2.780;2023-05-24T11:52:39;8.23;;;2.10;;
47455;SDS011;33202;48.512;-2.780;2023-05-24T11:55:05;12.20;;;3.17;;
47455;SDS011;33202;48.512;-2.780;2023-05-24T11:57:41;8.40;;;2.50;;
47455;SDS011;33202;48.512;-2.780;2023-05-24T12:00:12;10.20;;;2.78;;
47455;SDS011;33202;48.512;-2.780;2023-05-24T12:02:41;11.98;;;2.47;;
47455;SDS011;33202;48.512;-2.780;2023-05-24T12:05:07;7.38;;;2.40;;
47455;SDS011;33202;48.512;-2.780;2023-05-24T12:07:35;12.50;;;2.67;;
47455;SDS011;33202;48.512;-2.780;2023-05-24T12:10:02;11.53;;;3.03;;
47455;SDS011;33202;48.512;-2.780;2023-05-24T12:12:28;11.13;;;3.13;;
47455;SDS011;33202;48.512;-2.780;2023-05-24T12:14:55;20.88;;;3.40;;
47455;SDS011;33202;48.512;-2.780;2023-05-24T12:17:21;14.07;;;2.72;;
47455;SDS011;33202;48.512;-2.780;2023-05-24T12:19:47;9.70;;;2.22;;
47455;SDS011;33202;48.512;-2.780;2023-05-24T12:22:15;6.53;;;2.53;;
47455;SDS011;33202;48.512;-2.780;2023-05-24T12:24:41;11.85;;;2.90;;
47455;SDS011;33202;48.512;-2.780;2023-05-24T12:27:07;11.60;;;2.78;;
47455;SDS011;33202;48.512;-2.780;2023-05-24T12:29:40;9.90;;;2.40;;
47455;SDS011;33202;48.512;-2.780;2023-05-24T12:32:06;9.75;;;2.40;;
47455;SDS011;33202;48.512;-2.780;2023-05-24T12:34:36;7.72;;;2.90;;
47455;SDS011;33202;48.512;-2.780;2023-05-24T12:37:02;9.63;;;2.83;;
47455;SDS011;33202;48.512;-2.780;2023-05-24T12:39:28;12.82;;;2.72;;
47455;SDS011;33202;48.512;-2.780;2023-05-24T12:41:56;8.32;;;2.90;;
47455;SDS011;33202;48.512;-2.780;2023-05-24T12:44:26;7.53;;;2.55;;
47455;SDS011;33202;48.512;-2.780;2023-05-24T12:46:53;8.93;;;2.88;;
47455;SDS011;33202;48.512;-2.780;2023-05-24T12:49:20;11.70;;;3.10;;
47455;SDS011;33202;48.512;-2.780;2023-05-24T12:51:46;9.45;;;3.20;;
47455;SDS011;33202;48.512;-2.780;2023-05-24T12:54:12;10.20;;;2.78;;
47455;SDS011;33202;48.512;-2.780;2023-05-24T12:56:38;10.77;;;2.72;;
47455;SDS011;33202;48.512;-2.780;2023-05-24T12:59:05;7.70;;;2.80;;
47455;SDS011;33202;48.512;-2.780;2023-05-24T13:01:31;8.23;;;2.80;;
47455;SDS011;33202;48.512;-2.780;2023-05-24T13:03:57;11.90;;;3.05;;
47455;SDS011;33202;48.512;-2.780;2023-05-24T13:06:23;9.30;;;2.30;;
47455;SDS011;33202;48.512;-2.780;2023-05-24T13:08:50;9.10;;;2.67;;
47455;SDS011;33202;48.512;-2.780;2023-05-24T13:11:16;10.52;;;2.72;;
47455;SDS011;33202;48.512;-2.780;2023-05-24T13:13:42;11.70;;;3.15;;
47455;SDS011;33202;48.512;-2.780;2023-05-24T13:16:11;10.35;;;2.90;;
47455;SDS011;33202;48.512;-2.780;2023-05-24T13:18:37;12.32;;;2.97;;
47455;SDS011;33202;48.512;-2.780;2023-05-24T13:21:04;9.93;;;2.80;;
47455;SDS011;33202;48.512;-2.780;2023-05-24T13:23:30;9.68;;;2.72;;
47455;SDS011;33202;48.512;-2.780;2023-05-24T13:25:56;11.95;;;2.90;;
47455;SDS011;33202;48.512;-2.780;2023-05-24T13:28:22;7.65;;;2.67;;
47455;SDS011;33202;48.512;-2.780;2023-05-24T13:30:48;8.07;;;2.72;;
47455;SDS011;33202;48.512;-2.780;2023-05-24T13:33:14;9.15;;;2.90;;
47455;SDS011;33202;48.512;-2.780;2023-05-24T13:35:40;7.85;;;2.70;;
47455;SDS011;33202;48.512;-2.780;2023-05-24T13:38:06;11.77;;;2.60;;
47455;SDS011;33202;48.512;-2.780;2023-05-24T13:40:33;7.05;;;2.35;;
47455;SDS011;33202;48.512;-2.780;2023-05-24T13:42:59;8.27;;;2.30;;
47455;SDS011;33202;48.512;-2.780;2023-05-24T13:45:25;8.68;;;2.65;;
47455;SDS011;33202;48.512;-2.780;2023-05-24T13:47:51;8.50;;;2.88;;
47455;SDS011;33202;48.512;-2.780;2023-05-24T13:50:22;7.63;;;2.33;;
47455;SDS011;33202;48.512;-2.780;2023-05-24T13:52:50;8.05;;;2.75;;
47455;SDS011;33202;48.512;-2.780;2023-05-24T13:55:17;8.37;;;2.50;;
47455;SDS011;33202;48.512;-2.780;2023-05-24T13:57:42;9.77;;;2.55;;
47455;SDS011;33202;48.512;-2.780;2023-05-24T14:00:09;8.85;;;2.83;;
47455;SDS011;33202;48.512;-2.780;2023-05-24T14:02:36;7.28;;;2.17;;
47455;SDS011;33202;48.512;-2.780;2023-05-24T14:05:02;9.18;;;2.97;;
47455;SDS011;33202;48.512;-2.780;2023-05-24T14:07:28;7.43;;;2.60;;
47455;SDS011;33202;48.512;-2.780;2023-05-24T14:09:54;6.70;;;2.00;;
47455;SDS011;33202;48.512;-2.780;2023-05-24T14:12:20;7.95;;;2.22;;
47455;SDS011;33202;48.512;-2.780;2023-05-24T14:14:46;13.68;;;3.47;;
47455;SDS011;33202;48.512;-2.780;2023-05-24T14:17:12;8.27;;;2.88;;
47455;SDS011;33202;48.512;-2.780;2023-05-24T14:19:38;8.18;;;2.83;;
47455;SDS011;33202;48.512;-2.780;2023-05-24T14:22:04;9.20;;;2.33;;
47455;SDS011;33202;48.512;-2.780;2023-05-24T14:24:31;8.23;;;2.47;;
47455;SDS011;33202;48.512;-2.780;2023-05-24T14:26:57;9.18;;;2.50;;
47455;SDS011;33202;48.512;-2.780;2023-05-24T14:29:23;8.10;;;2.40;;
47455;SDS011;33202;48.512;-2.780;2023-05-24T14:31:49;6.60;;;2.40;;
47455;SDS011;33202;48.512;-2.780;2023-05-24T14:34:15;11.70;;;2.50;;
47455;SDS011;33202;48.512;-2.780;2023-05-24T14:36:41;11.23;;;2.80;;
47455;SDS011;33202;48.512;-2.780;2023-05-24T14:39:07;11.02;;;2.50;;
47455;SDS011;33202;48.512;-2.780;2023-05-24T14:41:33;10.05;;;2.47;;
47455;SDS011;33202;48.512;-2.780;2023-05-24T14:43:59;9.30;;;2.55;;
47455;SDS011;33202;48.512;-2.780;2023-05-24T14:46:25;6.40;;;2.55;;
47455;SDS011;33202;48.512;-2.780;2023-05-24T14:48:51;7.47;;;2.75;;
47455;SDS011;33202;48.512;-2.780;2023-05-24T14:51:17;6.10;;;2.10;;
47455;SDS011;33202;48.512;-2.780;2023-05-24T14:53:43;6.68;;;2.60;;
47455;SDS011;33202;48.512;-2.780;2023-05-24T14:56:10;6.78;;;2.55;;
47455;SDS011;33202;48.512;-2.780;2023-05-24T14:58:38;6.07;;;2.80;;
47455;SDS011;33202;48.512;-2.780;2023-05-24T15:01:04;10.57;;;2.50;;
47455;SDS011;33202;48.512;-2.780;2023-05-24T15:03:31;10.50;;;2.55;;